createdAt,value
2023-05-17T00:02:10.161Z,2.10
2023-05-17T00:04:39.380Z,1.90
2023-05-17T00:07:07.703Z,1.83
2023-05-17T00:09:36.975Z,2.10
2023-05-17T00:12:05.883Z,2.30
2023-05-17T00:14:41.666Z,2.20
2023-05-17T00:17:17.872Z,2.50
2023-05-17T00:19:46.820Z,2.27
2023-05-17T00:22:29.421Z,2.70
2023-05-17T00:24:57.560Z,2.30
2023-05-17T00:27:28.334Z,2.00
2023-05-17T00:30:02.530Z,2.37
2023-05-17T00:32:33.047Z,2.33
2023-05-17T00:35:03.294Z,2.50
2023-05-17T00:37:32.129Z,2.67
2023-05-17T00:40:08.903Z,2.80
2023-05-17T00:42:37.208Z,3.03
2023-05-17T00:45:09.758Z,2.80
2023-05-17T00:47:38.269Z,2.60
2023-05-17T00:50:08.170Z,2.70
2023-05-17T00:52:36.811Z,2.60
2023-05-17T00:55:07.909Z,3.10
2023-05-17T00:57:38.013Z,2.60
2023-05-17T01:00:10.803Z,2.40
2023-05-17T01:02:38.956Z,2.93
2023-05-17T01:05:09.142Z,2.50
2023-05-17T01:07:37.892Z,2.90
2023-05-17T01:10:10.688Z,2.67
2023-05-17T01:12:52.774Z,2.97
2023-05-17T01:15:31.528Z,2.73
2023-05-17T01:18:11.022Z,3.00
2023-05-17T01:20:43.788Z,2.60
2023-05-17T01:23:27.464Z,2.40
2023-05-17T01:26:07.077Z,2.70
2023-05-17T01:28:51.558Z,2.73
2023-05-17T01:31:22.956Z,3.20
2023-05-17T01:33:55.691Z,3.40
2023-05-17T01:36:24.199Z,3.13
2023-05-17T01:38:53.087Z,3.40
2023-05-17T01:41:28.937Z,3.63
2023-05-17T01:44:03.991Z,3.43
2023-05-17T01:46:39.395Z,3.17
2023-05-17T01:49:12.954Z,3.27
2023-05-17T01:51:51.903Z,3.73
2023-05-17T01:54:28.514Z,3.00
2023-05-17T01:57:00.422Z,3.90
2023-05-17T01:59:32.768Z,3.73
2023-05-17T02:02:06.484Z,3.40
2023-05-17T02:04:42.106Z,3.27
2023-05-17T02:07:11.088Z,3.50
2023-05-17T02:09:41.691Z,3.03
2023-05-17T02:12:11.412Z,3.27
2023-05-17T02:14:41.712Z,3.20
2023-05-17T02:17:10.834Z,3.13
2023-05-17T02:19:41.072Z,3.27
2023-05-17T02:22:10.439Z,3.50
2023-05-17T02:24:39.942Z,3.73
2023-05-17T02:27:10.094Z,3.30
2023-05-17T02:29:47.580Z,3.13
2023-05-17T02:32:19.264Z,3.10
2023-05-17T02:34:50.156Z,3.30
2023-05-17T02:37:21.185Z,3.30
2023-05-17T02:39:52.617Z,3.07
2023-05-17T02:42:21.286Z,3.03
2023-05-17T02:44:53.057Z,3.07
2023-05-17T02:47:23.834Z,3.27
2023-05-17T02:49:52.384Z,3.17
2023-05-17T02:52:22.908Z,3.63
2023-05-17T02:54:52.144Z,3.40
2023-05-17T02:57:20.070Z,3.53
2023-05-17T02:59:48.849Z,3.33
2023-05-17T03:02:17.905Z,3.20
2023-05-17T03:04:50.313Z,3.90
2023-05-17T03:07:21.274Z,3.37
2023-05-17T03:09:55.330Z,3.53
2023-05-17T03:12:26.049Z,3.40
2023-05-17T03:14:57.087Z,3.90
2023-05-17T03:17:25.809Z,3.77
2023-05-17T03:19:55.826Z,3.77
2023-05-17T03:22:25.828Z,3.20
2023-05-17T03:24:53.898Z,3.70
2023-05-17T03:27:22.782Z,3.73
2023-05-17T03:29:51.706Z,3.63
2023-05-17T03:32:30.745Z,3.60
2023-05-17T03:35:03.195Z,4.10
2023-05-17T03:37:32.337Z,4.07
2023-05-17T03:40:00.806Z,4.00
2023-05-17T03:42:28.877Z,3.97
2023-05-17T03:45:02.490Z,4.07
2023-05-17T03:47:37.195Z,3.80
2023-05-17T03:50:08.284Z,4.37
2023-05-17T03:52:37.389Z,3.80
2023-05-17T03:55:11.476Z,4.20
2023-05-17T03:57:41.517Z,4.33
2023-05-17T04:00:11.781Z,4.30
2023-05-17T04:02:42.458Z,4.30
2023-05-17T04:05:13.333Z,3.83
2023-05-17T04:07:42.567Z,3.63
2023-05-17T04:10:13.713Z,4.00
2023-05-17T04:12:43.357Z,3.87
2023-05-17T04:15:17.918Z,4.00
2023-05-17T04:17:48.350Z,4.53
2023-05-17T04:20:20.725Z,3.93
2023-05-17T04:22:50.013Z,3.50
2023-05-17T04:25:21.136Z,4.00
2023-05-17T04:27:51.352Z,4.20
2023-05-17T04:30:21.668Z,3.70
2023-05-17T04:32:52.308Z,4.13
2023-05-17T04:35:23.375Z,4.00
2023-05-17T04:37:52.955Z,3.97
2023-05-17T04:40:23.043Z,3.97
2023-05-17T04:42:59.948Z,4.13
2023-05-17T04:45:42.851Z,4.37
2023-05-17T04:48:12.176Z,4.50
2023-05-17T04:50:42.056Z,4.77
2023-05-17T04:53:11.178Z,4.13
2023-05-17T04:55:41.161Z,3.90
2023-05-17T04:58:11.620Z,4.13
2023-05-17T05:00:41.446Z,3.97
2023-05-17T05:03:13.684Z,4.00
2023-05-17T05:05:43.845Z,4.00
2023-05-17T05:08:13.134Z,4.03
2023-05-17T05:10:42.488Z,3.83
2023-05-17T05:13:12.795Z,3.60
2023-05-17T05:15:42.682Z,4.03
2023-05-17T05:18:12.251Z,3.20
2023-05-17T05:20:49.546Z,3.20
2023-05-17T05:23:24.595Z,3.03
2023-05-17T05:25:52.922Z,3.73
2023-05-17T05:28:23.779Z,3.20
2023-05-17T05:30:59.724Z,3.07
2023-05-17T05:33:30.280Z,3.00
2023-05-17T05:36:01.696Z,3.33
2023-05-17T05:38:31.294Z,3.07
2023-05-17T05:41:09.360Z,3.10
2023-05-17T05:43:48.336Z,3.43
2023-05-17T05:46:22.480Z,2.87
2023-05-17T05:48:53.662Z,3.00
2023-05-17T05:51:25.094Z,3.40
2023-05-17T05:53:53.809Z,3.40
2023-05-17T05:56:22.187Z,3.17
2023-05-17T05:58:52.906Z,3.03
2023-05-17T06:01:21.203Z,3.40
2023-05-17T06:03:53.161Z,3.30
2023-05-17T06:06:27.667Z,3.53
2023-05-17T06:09:01.303Z,3.40
2023-05-17T06:11:30.482Z,3.20
2023-05-17T06:13:58.524Z,3.70
2023-05-17T06:16:29.677Z,3.10
2023-05-17T06:19:03.433Z,3.00
2023-05-17T06:21:33.306Z,3.40
2023-05-17T06:24:02.878Z,3.40
2023-05-17T06:26:32.783Z,3.50
2023-05-17T06:29:02.614Z,3.57
2023-05-17T06:31:35.342Z,3.60
2023-05-17T06:34:06.623Z,3.60
2023-05-17T06:36:38.461Z,3.83
2023-05-17T06:39:09.129Z,3.53
2023-05-17T06:41:37.958Z,3.50
2023-05-17T06:44:07.216Z,3.50
2023-05-17T06:46:36.539Z,3.93
2023-05-17T06:49:04.850Z,3.37
2023-05-17T06:51:35.787Z,3.70
2023-05-17T06:54:04.754Z,5.60
2023-05-17T06:56:36.581Z,4.07
2023-05-17T06:59:07.903Z,3.20
2023-05-17T07:01:37.068Z,3.40
2023-05-17T07:04:05.556Z,3.30
2023-05-17T07:06:36.564Z,3.63
2023-05-17T07:09:10.485Z,3.63
2023-05-17T07:11:43.035Z,3.57
2023-05-17T07:14:16.187Z,4.33
2023-05-17T07:16:44.125Z,3.10
2023-05-17T07:19:14.342Z,3.23
2023-05-17T07:21:51.603Z,3.70
2023-05-17T07:24:20.517Z,3.40
2023-05-17T07:26:52.154Z,3.27
2023-05-17T07:29:22.020Z,3.33
2023-05-17T07:31:53.811Z,2.97
2023-05-17T07:34:24.101Z,3.20
2023-05-17T07:37:00.634Z,4.13
2023-05-17T07:39:31.770Z,2.93
2023-05-17T07:42:05.946Z,2.70
2023-05-17T07:44:33.896Z,4.13
2023-05-17T07:47:03.361Z,2.97
2023-05-17T07:49:32.590Z,4.20
2023-05-17T07:52:04.447Z,3.13
2023-05-17T07:54:37.416Z,2.87
2023-05-17T07:57:08.605Z,3.23
2023-05-17T07:59:37.945Z,3.87
2023-05-17T08:02:08.373Z,3.10
2023-05-17T08:04:37.229Z,2.97
2023-05-17T08:07:09.406Z,3.10
2023-05-17T08:09:38.530Z,4.40
2023-05-17T08:12:08.959Z,3.73
2023-05-17T08:14:40.228Z,3.10
2023-05-17T08:17:09.840Z,2.70
2023-05-17T08:19:39.323Z,3.00
2023-05-17T08:22:10.950Z,3.20
2023-05-17T08:24:42.343Z,2.63
2023-05-17T08:27:11.649Z,3.10
2023-05-17T08:29:43.625Z,3.43
2023-05-17T08:32:12.238Z,2.60
2023-05-17T08:34:42.914Z,2.77
2023-05-17T08:37:14.777Z,2.77
2023-05-17T08:39:43.726Z,3.10
2023-05-17T08:42:15.149Z,2.50
2023-05-17T08:44:45.158Z,2.80
2023-05-17T08:47:26.403Z,2.67
2023-05-17T08:50:01.137Z,2.33
2023-05-17T08:52:33.721Z,2.30
2023-05-17T08:55:03.088Z,2.43
2023-05-17T08:57:38.795Z,2.40
2023-05-17T09:00:16.088Z,2.80
2023-05-17T09:02:45.997Z,2.20
2023-05-17T09:05:17.426Z,2.47
2023-05-17T09:07:53.080Z,2.60
2023-05-17T09:10:23.968Z,2.40
2023-05-17T09:12:53.889Z,2.70
2023-05-17T09:15:27.041Z,2.60
2023-05-17T09:17:58.005Z,2.80
2023-05-17T09:20:34.644Z,2.50
2023-05-17T09:23:07.168Z,2.40
2023-05-17T09:25:35.200Z,3.20
2023-05-17T09:28:09.489Z,2.53
2023-05-17T09:30:40.319Z,2.53
2023-05-17T09:33:17.662Z,2.63
2023-05-17T09:35:49.157Z,2.50
2023-05-17T09:38:18.625Z,2.50
2023-05-17T09:40:49.542Z,2.73
2023-05-17T09:43:24.588Z,2.40
2023-05-17T09:46:00.517Z,2.57
2023-05-17T09:48:29.568Z,2.47
2023-05-17T09:51:07.685Z,2.50
2023-05-17T09:53:45.648Z,2.50
2023-05-17T09:56:14.201Z,2.20
2023-05-17T09:58:48.137Z,2.57
2023-05-17T10:01:19.334Z,2.40
2023-05-17T10:03:51.635Z,2.90
2023-05-17T10:06:38.284Z,2.80
2023-05-17T10:09:16.211Z,2.60
2023-05-17T10:11:48.718Z,2.10
2023-05-17T10:14:24.495Z,2.20
2023-05-17T10:16:55.095Z,2.53
2023-05-17T10:19:29.320Z,2.23
2023-05-17T10:22:11.110Z,2.90
2023-05-17T10:24:51.880Z,2.93
2023-05-17T10:27:24.693Z,2.80
2023-05-17T10:29:56.309Z,2.53
2023-05-17T10:32:28.383Z,2.83
2023-05-17T10:35:10.409Z,2.87
2023-05-17T10:37:43.274Z,2.70
2023-05-17T10:40:17.940Z,2.90
2023-05-17T10:42:56.545Z,3.10
2023-05-17T10:45:27.034Z,2.80
2023-05-17T10:47:58.800Z,2.60
2023-05-17T10:50:29.450Z,2.47
2023-05-17T10:53:05.947Z,2.50
2023-05-17T10:55:44.743Z,2.60
2023-05-17T10:58:19.853Z,2.40
2023-05-17T11:00:50.194Z,2.40
2023-05-17T11:03:21.222Z,2.50
2023-05-17T11:06:23.394Z,2.63
2023-05-17T11:09:11.678Z,2.80
2023-05-17T11:12:05.837Z,2.30
2023-05-17T11:14:53.522Z,2.37
2023-05-17T11:17:28.811Z,2.03
2023-05-17T11:20:01.478Z,2.10
2023-05-17T11:22:38.573Z,2.23
2023-05-17T11:25:14.363Z,2.60
2023-05-17T11:27:51.282Z,1.80
2023-05-17T11:30:22.724Z,2.00
2023-05-17T11:32:53.791Z,2.33
2023-05-17T11:35:31.186Z,2.30
2023-05-17T11:38:17.195Z,2.53
2023-05-17T11:40:47.601Z,2.03
2023-05-17T11:43:23.020Z,2.33
2023-05-17T11:45:57.502Z,2.03
2023-05-17T11:48:28.735Z,2.43
2023-05-17T11:50:58.927Z,1.73
2023-05-17T11:53:31.978Z,1.83
2023-05-17T11:56:05.370Z,2.07
2023-05-17T11:58:40.754Z,2.07
2023-05-17T12:01:09.218Z,2.10
2023-05-17T12:03:47.644Z,1.87
2023-05-17T12:06:18.697Z,2.10
2023-05-17T12:08:48.235Z,1.90
2023-05-17T12:11:25.078Z,2.00
2023-05-17T12:13:56.084Z,2.00
2023-05-17T12:16:33.194Z,2.10
2023-05-17T12:19:03.676Z,1.73
2023-05-17T12:21:39.481Z,1.93
2023-05-17T12:24:09.601Z,1.93
2023-05-17T12:26:46.531Z,1.73
2023-05-17T12:29:24.890Z,1.73
2023-05-17T12:31:57.971Z,4.23
2023-05-17T12:34:25.941Z,2.20
2023-05-17T12:36:54.605Z,1.63
2023-05-17T12:39:24.849Z,2.00
2023-05-17T12:41:56.636Z,1.90
2023-05-17T12:44:28.440Z,2.33
2023-05-17T12:46:59.096Z,2.63
2023-05-17T12:49:27.283Z,2.93
2023-05-17T12:51:56.480Z,1.87
2023-05-17T12:54:43.331Z,2.00
2023-05-17T12:57:13.858Z,2.00
2023-05-17T12:59:55.046Z,2.00
2023-05-17T13:02:26.950Z,2.17
2023-05-17T13:05:06.882Z,2.10
2023-05-17T13:07:35.939Z,2.10
2023-05-17T13:10:05.874Z,1.77
2023-05-17T13:12:39.476Z,2.20
2023-05-17T13:15:11.667Z,2.07
2023-05-17T13:17:45.090Z,2.30
2023-05-17T13:20:13.996Z,2.13
2023-05-17T13:22:42.822Z,2.10
2023-05-17T13:25:15.715Z,2.20
2023-05-17T13:27:53.125Z,2.10
2023-05-17T13:30:29.854Z,2.00
2023-05-17T13:32:58.346Z,2.10
2023-05-17T13:35:26.862Z,2.37
2023-05-17T13:37:58.819Z,1.90
2023-05-17T13:40:27.910Z,2.50
2023-05-17T13:42:56.009Z,2.13
2023-05-17T13:45:25.638Z,2.03
2023-05-17T13:47:54.614Z,2.50
2023-05-17T13:50:24.433Z,2.20
2023-05-17T13:52:52.464Z,1.73
2023-05-17T13:55:20.820Z,2.13
2023-05-17T13:57:52.825Z,1.90
2023-05-17T14:00:22.190Z,2.30
2023-05-17T14:02:51.551Z,2.20
2023-05-17T14:05:24.353Z,2.13
2023-05-17T14:07:57.181Z,1.98
2023-05-17T14:10:26.511Z,2.15
2023-05-17T14:12:58.287Z,2.08
2023-05-17T14:15:28.599Z,1.98
2023-05-17T14:17:58.606Z,2.22
2023-05-17T14:20:28.182Z,2.03
2023-05-17T14:22:57.608Z,2.65
2023-05-17T14:25:28.279Z,2.00
2023-05-17T14:27:57.337Z,1.88
2023-05-17T14:30:27.204Z,2.30
2023-05-17T14:32:58.936Z,2.33
2023-05-17T14:35:30.290Z,2.40
2023-05-17T14:37:59.935Z,2.37
2023-05-17T14:40:33.689Z,2.33
2023-05-17T14:43:03.909Z,2.30
2023-05-17T14:45:32.172Z,2.20
2023-05-17T14:48:02.767Z,2.55
2023-05-17T14:50:32.809Z,2.00
2023-05-17T14:53:02.498Z,1.85
2023-05-17T14:55:31.602Z,2.08
2023-05-17T14:58:04.153Z,2.10
2023-05-17T15:00:32.910Z,2.15
2023-05-17T15:03:04.854Z,2.10
2023-05-17T15:05:33.676Z,2.17
2023-05-17T15:08:04.609Z,2.20
2023-05-17T15:10:35.271Z,1.90
2023-05-17T15:13:03.244Z,1.90
2023-05-17T15:15:33.692Z,2.13
2023-05-17T15:18:03.531Z,2.47
2023-05-17T15:20:31.926Z,2.17
2023-05-17T15:23:00.148Z,2.10
2023-05-17T15:25:29.206Z,2.40
2023-05-17T15:27:58.866Z,1.95
2023-05-17T15:30:28.025Z,1.95
2023-05-17T15:32:59.675Z,1.95
2023-05-17T15:35:29.552Z,2.50
2023-05-17T15:38:00.446Z,2.17
2023-05-17T15:40:34.939Z,2.28
2023-05-17T15:43:05.378Z,2.40
2023-05-17T15:45:34.479Z,2.50
2023-05-17T15:48:03.306Z,2.10
2023-05-17T15:50:33.158Z,2.03
2023-05-17T15:53:02.654Z,2.22
2023-05-17T15:55:36.276Z,2.17
2023-05-17T15:58:07.061Z,2.38
2023-05-17T16:00:36.720Z,1.70
2023-05-17T16:03:14.413Z,2.20
2023-05-17T16:05:44.401Z,2.30
2023-05-17T16:08:13.456Z,1.70
2023-05-17T16:10:44.485Z,2.30
2023-05-17T16:13:13.548Z,2.60
2023-05-17T16:15:41.539Z,2.20
2023-05-17T16:18:13.662Z,1.97
2023-05-17T16:20:44.418Z,1.83
2023-05-17T16:23:14.970Z,2.10
2023-05-17T16:25:48.084Z,1.77
2023-05-17T16:28:39.505Z,2.00
2023-05-17T16:31:07.880Z,2.23
2023-05-17T16:33:36.891Z,2.10
2023-05-17T16:36:08.080Z,2.37
2023-05-17T16:38:36.453Z,2.37
2023-05-17T16:41:06.708Z,2.30
2023-05-17T16:43:34.852Z,2.00
2023-05-17T16:46:03.073Z,2.30
2023-05-17T16:48:34.001Z,2.47
2023-05-17T16:51:05.165Z,2.23
2023-05-17T16:53:43.515Z,2.17
2023-05-17T16:56:14.056Z,2.20
2023-05-17T16:58:52.725Z,2.17
2023-05-17T17:01:25.977Z,2.40
2023-05-17T17:03:56.983Z,2.03
2023-05-17T17:06:29.717Z,2.40
2023-05-17T17:08:59.505Z,2.77
2023-05-17T17:11:32.094Z,2.13
2023-05-17T17:14:01.326Z,2.30
2023-05-17T17:16:30.345Z,2.20
2023-05-17T17:18:59.040Z,2.33
2023-05-17T17:21:27.451Z,2.70
2023-05-17T17:23:59.632Z,3.07
2023-05-17T17:26:30.780Z,2.10
2023-05-17T17:28:59.531Z,3.00
2023-05-17T17:31:30.908Z,2.17
2023-05-17T17:34:02.334Z,2.20
2023-05-17T17:36:31.242Z,2.00
2023-05-17T17:39:04.421Z,3.60
2023-05-17T17:41:35.083Z,2.40
2023-05-17T17:44:31.092Z,2.20
2023-05-17T17:47:02.544Z,2.40
2023-05-17T17:49:33.830Z,2.23
2023-05-17T17:52:05.045Z,2.17
2023-05-17T17:54:35.242Z,2.03
2023-05-17T17:57:09.913Z,1.93
2023-05-17T17:59:41.951Z,2.50
2023-05-17T18:02:15.273Z,2.27
2023-05-17T18:04:47.365Z,2.37
2023-05-17T18:07:19.279Z,2.40
2023-05-17T18:10:03.668Z,2.20
2023-05-17T18:12:35.434Z,2.30
2023-05-17T18:15:03.360Z,2.50
2023-05-17T18:17:35.311Z,2.03
2023-05-17T18:20:15.494Z,2.00
2023-05-17T18:22:46.126Z,2.10
2023-05-17T18:25:17.434Z,1.90
2023-05-17T18:27:46.045Z,2.10
2023-05-17T18:30:19.834Z,2.30
2023-05-17T18:32:53.001Z,1.93
2023-05-17T18:35:22.674Z,1.87
2023-05-17T18:37:53.042Z,2.33
2023-05-17T18:40:29.528Z,2.50
2023-05-17T18:43:01.905Z,2.60
2023-05-17T18:45:38.336Z,2.17
2023-05-17T18:48:08.935Z,2.63
2023-05-17T18:50:38.626Z,2.20
2023-05-17T18:53:15.914Z,2.63
2023-05-17T18:55:48.246Z,2.10
2023-05-17T18:58:19.181Z,2.63
2023-05-17T19:00:50.116Z,2.33
2023-05-17T19:03:21.359Z,2.57
2023-05-17T19:05:51.091Z,2.20
2023-05-17T19:08:21.290Z,2.23
2023-05-17T19:10:54.427Z,2.43
2023-05-17T19:13:40.004Z,2.30
2023-05-17T19:16:14.435Z,2.37
2023-05-17T19:18:43.278Z,2.20
2023-05-17T19:21:11.278Z,2.40
2023-05-17T19:23:39.949Z,2.40
2023-05-17T19:26:10.147Z,2.30
2023-05-17T19:28:40.080Z,2.27
2023-05-17T19:31:12.070Z,2.63
2023-05-17T19:33:45.917Z,2.57
2023-05-17T19:36:14.122Z,2.30
2023-05-17T19:38:47.113Z,2.07
2023-05-17T19:41:17.954Z,2.90
2023-05-17T19:43:53.867Z,2.30
2023-05-17T19:46:24.906Z,2.23
2023-05-17T19:48:52.772Z,2.20
2023-05-17T19:51:21.757Z,2.30
2023-05-17T19:53:53.521Z,2.07
2023-05-17T19:56:26.981Z,2.10
2023-05-17T19:58:56.536Z,2.13
2023-05-17T20:01:24.412Z,2.10
2023-05-17T20:04:00.329Z,2.37
2023-05-17T20:06:29.162Z,2.30
2023-05-17T20:08:57.033Z,2.03
2023-05-17T20:11:27.344Z,2.10
2023-05-17T20:13:56.487Z,2.03
2023-05-17T20:16:28.129Z,2.47
2023-05-17T20:19:02.548Z,1.97
2023-05-17T20:21:33.400Z,2.17
2023-05-17T20:24:04.795Z,2.23
2023-05-17T20:26:38.774Z,2.50
2023-05-17T20:29:09.245Z,2.37
2023-05-17T20:31:41.347Z,2.37
2023-05-17T20:34:12.439Z,2.60
2023-05-17T20:36:46.343Z,2.60
2023-05-17T20:39:15.516Z,2.33
2023-05-17T20:41:45.196Z,1.90
2023-05-17T20:44:19.530Z,2.20
2023-05-17T20:46:51.553Z,2.63
2023-05-17T20:49:35.710Z,2.27
2023-05-17T20:52:10.851Z,2.37
2023-05-17T20:54:39.214Z,1.90
2023-05-17T20:57:11.696Z,1.97
2023-05-17T20:59:42.488Z,2.37
2023-05-17T21:02:11.929Z,2.07
2023-05-17T21:04:41.001Z,2.50
2023-05-17T21:07:10.597Z,2.93
2023-05-17T21:09:40.860Z,2.20
2023-05-17T21:12:10.748Z,2.50
2023-05-17T21:14:39.981Z,2.57
2023-05-17T21:17:12.808Z,2.50
2023-05-17T21:19:43.667Z,1.93
2023-05-17T21:22:16.096Z,2.60
2023-05-17T21:24:45.019Z,2.60
2023-05-17T21:27:28.749Z,2.80
2023-05-17T21:29:57.772Z,2.50
2023-05-17T21:32:28.664Z,2.60
2023-05-17T21:34:58.358Z,2.50
2023-05-17T21:37:28.141Z,2.73
2023-05-17T21:40:00.474Z,2.60
2023-05-17T21:42:32.544Z,2.87
2023-05-17T21:45:04.095Z,2.70
2023-05-17T21:47:32.326Z,2.77
2023-05-17T21:50:01.202Z,2.57
2023-05-17T21:52:31.001Z,2.37
2023-05-17T21:54:58.830Z,2.40
2023-05-17T21:57:26.947Z,2.63
2023-05-17T21:59:57.326Z,3.37
2023-05-17T22:02:26.022Z,2.90
2023-05-17T22:04:54.591Z,2.83
2023-05-17T22:07:22.984Z,3.27
2023-05-17T22:09:54.357Z,3.57
2023-05-17T22:12:26.496Z,3.60
2023-05-17T22:14:56.868Z,3.07
2023-05-17T22:17:35.180Z,2.80
2023-05-17T22:20:11.050Z,3.40
2023-05-17T22:22:41.522Z,3.10
2023-05-17T22:25:11.968Z,3.10
2023-05-17T22:27:42.031Z,2.63
2023-05-17T22:30:12.795Z,2.70
2023-05-17T22:32:41.328Z,3.33
2023-05-17T22:35:10.311Z,3.13
2023-05-17T22:37:42.617Z,3.00
2023-05-17T22:40:12.133Z,2.80
2023-05-17T22:42:40.014Z,3.10
2023-05-17T22:45:09.009Z,3.10
2023-05-17T22:47:41.185Z,2.93
2023-05-17T22:50:13.669Z,2.90
2023-05-17T22:52:46.108Z,3.10
2023-05-17T22:55:16.507Z,2.90
2023-05-17T22:57:45.536Z,3.00
2023-05-17T23:00:17.734Z,3.00
2023-05-17T23:02:47.653Z,2.80
2023-05-17T23:05:22.042Z,3.07
2023-05-17T23:07:50.691Z,3.20
2023-05-17T23:10:21.807Z,3.17
2023-05-17T23:12:52.260Z,3.03
2023-05-17T23:15:22.085Z,3.20
2023-05-17T23:17:54.451Z,2.87
2023-05-17T23:20:26.792Z,2.70
2023-05-17T23:22:55.534Z,3.20
2023-05-17T23:25:23.448Z,3.10
2023-05-17T23:27:53.791Z,2.80
2023-05-17T23:30:26.353Z,3.40
2023-05-17T23:33:00.558Z,3.37
2023-05-17T23:35:31.688Z,2.80
2023-05-17T23:38:02.066Z,2.80
2023-05-17T23:40:37.584Z,3.03
2023-05-17T23:43:08.623Z,2.90
2023-05-17T23:45:40.551Z,3.33
2023-05-17T23:48:12.065Z,3.20
2023-05-17T23:50:40.869Z,4.03
2023-05-17T23:53:10.044Z,3.20
2023-05-17T23:55:38.924Z,3.00
2023-05-17T23:58:09.592Z,3.20
